Aeropuerto de Asturias

latitud = 43° 34' 01''N | longitud = 006° 02' 39''W
127 metros sobre el nivel del mar | datos mensuales

Fecha, hora, temperatura, viento dirección y velocidad, humedad y presión.

  • 21-01-2018 02:00:00 | 14.70°C | Oeste |16.00 km/h | 66.00% | 1012.20 hPa
  • 21-01-2018 01:00:00 | 15.80°C | Oeste |26.00 km/h | 61.00% | 1011.80 hPa
  • 21-01-2018 00:00:00 | 15.80°C | Oeste |25.00 km/h | 61.00% | 1011.40 hPa
  • 20-01-2018 23:00:00 | 16.00°C | Oeste |28.00 km/h | 61.00% | 1010.80 hPa
  • 20-01-2018 22:00:00 | 15.60°C | Oeste |20.00 km/h | 62.00% | 1011.00 hPa
  • 20-01-2018 21:00:00 | 15.10°C | Sudoeste |16.00 km/h | 64.00% | 1010.80 hPa
  • 20-01-2018 20:00:00 | 15.50°C | Oeste |22.00 km/h | 62.00% | 1010.30 hPa
  • 20-01-2018 19:00:00 | 15.60°C | Oeste |22.00 km/h | 62.00% | 1009.70 hPa
  • 20-01-2018 18:00:00 | 15.70°C | Oeste |22.00 km/h | 62.00% | 1009.10 hPa
  • 20-01-2018 17:00:00 | 16.40°C | Sudoeste |18.00 km/h | 61.00% | 1008.50 hPa
  • 20-01-2018 16:00:00 | 16.70°C | Oeste |19.00 km/h | 61.00% | 1008.10 hPa
  • 20-01-2018 15:00:00 | 17.00°C | Oeste |30.00 km/h | 59.00% | 1007.80 hPa
  • 20-01-2018 14:00:00 | 16.40°C | Oeste |25.00 km/h | 60.00% | 1008.20 hPa
  • 20-01-2018 13:00:00 | 16.30°C | Oeste |20.00 km/h | 61.00% | 1008.80 hPa
  • 20-01-2018 12:00:00 | 14.40°C | Sudoeste |17.00 km/h | 65.00% | 1009.20 hPa
  • 20-01-2018 11:00:00 | 13.50°C | Sudoeste |21.00 km/h | 66.00% | 1008.80 hPa
  • 20-01-2018 10:00:00 | 12.60°C | Sudoeste |24.00 km/h | 65.00% | 1008.80 hPa
  • 20-01-2018 09:00:00 | 13.20°C | Oeste |32.00 km/h | 63.00% | 1008.80 hPa
  • 20-01-2018 08:00:00 | 11.80°C | Oeste |18.00 km/h | 58.00% | 1008.60 hPa
  • 20-01-2018 07:00:00 | 10.80°C | Oeste |16.00 km/h | 66.00% | 1008.10 hPa
  • 20-01-2018 06:00:00 | 10.50°C | Oeste |10.00 km/h | 67.00% | 1008.30 hPa
  • 20-01-2018 05:00:00 | 8.10°C | Sudoeste |3.00 km/h | 69.00% | 1008.30 hPa
  • 20-01-2018 04:00:00 | 9.50°C | Sudoeste |9.00 km/h | 65.00% | 1008.40 hPa
  • 20-01-2018 03:00:00 | 9.60°C | Sudoeste |8.00 km/h | 67.00% | 1009.20 hPa